sensor_id;sensor_type;location;lat;lon;timestamp;pressure;altitude;pressure_sealevel;temperature
13497;BMP180;6820;49.374;8.452;2022-08-19T00:01:38;100101.31;;;28.63
13497;BMP180;6820;49.374;8.452;2022-08-19T00:05:40;100098.75;;;28.60
13497;BMP180;6820;49.374;8.452;2022-08-19T00:09:43;100084.03;;;28.56
13497;BMP180;6820;49.374;8.452;2022-08-19T00:13:44;100081.50;;;28.50
13497;BMP180;6820;49.374;8.452;2022-08-19T00:17:49;100080.63;;;28.51
13497;BMP180;6820;49.374;8.452;2022-08-19T00:21:51;100081.47;;;28.52
13497;BMP180;6820;49.374;8.452;2022-08-19T00:25:53;100078.88;;;28.49
13497;BMP180;6820;49.374;8.452;2022-08-19T00:29:54;100086.75;;;28.46
13497;BMP180;6820;49.374;8.452;2022-08-19T00:33:56;100097.28;;;28.42
13497;BMP180;6820;49.374;8.452;2022-08-19T00:37:58;100090.31;;;28.41
13497;BMP180;6820;49.374;8.452;2022-08-19T00:42:01;100068.66;;;28.36
13497;BMP180;6820;49.374;8.452;2022-08-19T00:46:02;100061.81;;;28.30
13497;BMP180;6820;49.374;8.452;2022-08-19T00:50:07;100067.91;;;28.28
13497;BMP180;6820;49.374;8.452;2022-08-19T00:54:09;100061.84;;;28.27
13497;BMP180;6820;49.374;8.452;2022-08-19T00:58:14;100055.78;;;28.25
13497;BMP180;6820;49.374;8.452;2022-08-19T01:02:16;100073.16;;;28.26
13497;BMP180;6820;49.374;8.452;2022-08-19T01:06:18;100069.66;;;28.27
13497;BMP180;6820;49.374;8.452;2022-08-19T01:10:26;100056.69;;;28.24
13497;BMP180;6820;49.374;8.452;2022-08-19T01:14:32;100053.22;;;28.22
13497;BMP180;6820;49.374;8.452;2022-08-19T01:18:40;100062.69;;;28.28
13497;BMP180;6820;49.374;8.452;2022-08-19T01:22:49;100068.81;;;28.28
13497;BMP180;6820;49.374;8.452;2022-08-19T01:26:52;100080.00;;;28.33
13497;BMP180;6820;49.374;8.452;2022-08-19T01:30:54;100086.88;;;28.39
13497;BMP180;6820;49.374;8.452;2022-08-19T01:34:56;100072.91;;;28.41
13497;BMP180;6820;49.374;8.452;2022-08-19T01:38:59;100061.81;;;28.30
13497;BMP180;6820;49.374;8.452;2022-08-19T01:43:02;100067.06;;;28.27
13497;BMP180;6820;49.374;8.452;2022-08-19T01:47:04;100066.22;;;28.25
13497;BMP180;6820;49.374;8.452;2022-08-19T01:51:07;100079.19;;;28.30
13497;BMP180;6820;49.374;8.452;2022-08-19T01:55:13;100064.50;;;28.24
13497;BMP180;6820;49.374;8.452;2022-08-19T01:59:17;100075.81;;;28.23
13497;BMP180;6820;49.374;8.452;2022-08-19T02:03:19;100072.38;;;28.20
13497;BMP180;6820;49.374;8.452;2022-08-19T02:07:21;100075.91;;;28.17
13497;BMP180;6820;49.374;8.452;2022-08-19T02:11:41;100078.44;;;28.22
13497;BMP180;6820;49.374;8.452;2022-08-19T02:15:42;100083.63;;;28.23
13497;BMP180;6820;49.374;8.452;2022-08-19T02:19:44;100071.47;;;28.24
13497;BMP180;6820;49.374;8.452;2022-08-19T02:23:46;100080.94;;;28.31
13497;BMP180;6820;49.374;8.452;2022-08-19T02:27:48;100086.94;;;28.34
13497;BMP180;6820;49.374;8.452;2022-08-19T02:31:50;100098.13;;;28.42
13497;BMP180;6820;49.374;8.452;2022-08-19T02:35:52;100107.53;;;28.53
13497;BMP180;6820;49.374;8.452;2022-08-19T02:39:54;100095.31;;;28.58
13497;BMP180;6820;49.374;8.452;2022-08-19T02:43:58;100087.56;;;28.52
13497;BMP180;6820;49.374;8.452;2022-08-19T02:48:20;100077.22;;;28.44
13497;BMP180;6820;49.374;8.452;2022-08-19T02:52:22;100077.28;;;28.42
13497;BMP180;6820;49.374;8.452;2022-08-19T02:56:24;100094.56;;;28.46
13497;BMP180;6820;49.374;8.452;2022-08-19T03:00:28;100098.91;;;28.50
13497;BMP180;6820;49.374;8.452;2022-08-19T03:04:30;100094.56;;;28.50
13497;BMP180;6820;49.374;8.452;2022-08-19T03:08:31;100077.38;;;28.35
13497;BMP180;6820;49.374;8.452;2022-08-19T03:12:36;100074.97;;;28.23
13497;BMP180;6820;49.374;8.452;2022-08-19T03:16:46;100081.09;;;28.20
13497;BMP180;6820;49.374;8.452;2022-08-19T03:20:50;100080.25;;;28.17
13497;BMP180;6820;49.374;8.452;2022-08-19T03:24:54;100084.59;;;28.17
13497;BMP180;6820;49.374;8.452;2022-08-19T03:28:56;100086.41;;;28.13
13497;BMP180;6820;49.374;8.452;2022-08-19T03:32:59;100082.13;;;28.08
13497;BMP180;6820;49.374;8.452;2022-08-19T03:37:05;100084.91;;;27.93
13497;BMP180;6820;49.374;8.452;2022-08-19T03:41:11;100083.44;;;27.73
13497;BMP180;6820;49.374;8.452;2022-08-19T03:45:14;100088.75;;;27.62
13497;BMP180;6820;49.374;8.452;2022-08-19T03:49:16;100094.91;;;27.57
13497;BMP180;6820;49.374;8.452;2022-08-19T03:53:19;100096.69;;;27.54
13497;BMP180;6820;49.374;8.452;2022-08-19T03:57:20;100103.59;;;27.55
13497;BMP180;6820;49.374;8.452;2022-08-19T04:01:32;100100.97;;;27.56
13497;BMP180;6820;49.374;8.452;2022-08-19T04:05:36;100099.13;;;27.64
13497;BMP180;6820;49.374;8.452;2022-08-19T04:09:39;100103.53;;;27.62
13497;BMP180;6820;49.374;8.452;2022-08-19T04:13:40;100108.69;;;27.63
13497;BMP180;6820;49.374;8.452;2022-08-19T04:17:43;100107.84;;;27.64
13497;BMP180;6820;49.374;8.452;2022-08-19T04:21:48;100091.38;;;27.62
13497;BMP180;6820;49.374;8.452;2022-08-19T04:25:51;100093.16;;;27.56
13497;BMP180;6820;49.374;8.452;2022-08-19T04:29:52;100101.09;;;27.49
13497;BMP180;6820;49.374;8.452;2022-08-19T04:34:00;100095.00;;;27.48
13497;BMP180;6820;49.374;8.452;2022-08-19T04:38:03;100098.44;;;27.52
13497;BMP180;6820;49.374;8.452;2022-08-19T04:42:05;100100.97;;;27.57
13497;BMP180;6820;49.374;8.452;2022-08-19T04:46:31;100096.63;;;27.59
13497;BMP180;6820;49.374;8.452;2022-08-19T04:50:52;100092.19;;;27.67
13497;BMP180;6820;49.374;8.452;2022-08-19T04:54:58;100104.34;;;27.64
13497;BMP180;6820;49.374;8.452;2022-08-19T04:59:01;100115.66;;;27.64
13497;BMP180;6820;49.374;8.452;2022-08-19T05:03:05;100116.38;;;27.75
13497;BMP180;6820;49.374;8.452;2022-08-19T05:07:08;100103.28;;;27.81
13497;BMP180;6820;49.374;8.452;2022-08-19T05:11:15;100110.06;;;27.95
13497;BMP180;6820;49.374;8.452;2022-08-19T05:15:17;100114.25;;;28.07
13497;BMP180;6820;49.374;8.452;2022-08-19T05:19:20;100121.13;;;28.14
13497;BMP180;6820;49.374;8.452;2022-08-19T05:23:40;100123.69;;;28.17
13497;BMP180;6820;49.374;8.452;2022-08-19T05:27:42;100119.31;;;28.18
13497;BMP180;6820;49.374;8.452;2022-08-19T05:31:44;100126.25;;;28.19
13497;BMP180;6820;49.374;8.452;2022-08-19T05:35:46;100133.22;;;28.20
13497;BMP180;6820;49.374;8.452;2022-08-19T05:39:49;100139.19;;;28.25
13497;BMP180;6820;49.374;8.452;2022-08-19T05:43:52;100146.88;;;28.37
13497;BMP180;6820;49.374;8.452;2022-08-19T05:47:53;100154.59;;;28.45
13497;BMP180;6820;49.374;8.452;2022-08-19T05:51:55;100163.22;;;28.48
13497;BMP180;6820;49.374;8.452;2022-08-19T05:55:57;100170.13;;;28.52
13497;BMP180;6820;49.374;8.452;2022-08-19T05:59:59;100177.84;;;28.61
13497;BMP180;6820;49.374;8.452;2022-08-19T06:04:12;100183.00;;;28.64
13497;BMP180;6820;49.374;8.452;2022-08-19T06:08:19;100189.94;;;28.65
13497;BMP180;6820;49.374;8.452;2022-08-19T06:12:35;100195.09;;;28.69
13497;BMP180;6820;49.374;8.452;2022-08-19T06:16:38;100203.75;;;28.73
13497;BMP180;6820;49.374;8.452;2022-08-19T06:20:41;100203.78;;;28.71
13497;BMP180;6820;49.374;8.452;2022-08-19T06:24:56;100195.81;;;28.78
13497;BMP180;6820;49.374;8.452;2022-08-19T06:28:58;100200.19;;;28.79
13497;BMP180;6820;49.374;8.452;2022-08-19T06:32:59;100199.22;;;28.85
13497;BMP180;6820;49.374;8.452;2022-08-19T06:37:01;100200.94;;;28.86
13497;BMP180;6820;49.374;8.452;2022-08-19T06:41:04;100202.53;;;28.94
13497;BMP180;6820;49.374;8.452;2022-08-19T06:45:08;100203.28;;;29.04
13497;BMP180;6820;49.374;8.452;2022-08-19T06:49:11;100210.25;;;29.03
13497;BMP180;6820;49.374;8.452;2022-08-19T06:53:15;100215.53;;;28.97
13497;BMP180;6820;49.374;8.452;2022-08-19T06:57:16;100215.53;;;29.00
13497;BMP180;6820;49.374;8.452;2022-08-19T07:01:19;100223.31;;;29.02
13497;BMP180;6820;49.374;8.452;2022-08-19T07:05:22;100211.97;;;29.04
13497;BMP180;6820;49.374;8.452;2022-08-19T07:09:23;100211.78;;;29.17
13497;BMP180;6820;49.374;8.452;2022-08-19T07:13:25;100209.84;;;29.28
13497;BMP180;6820;49.374;8.452;2022-08-19T07:17:27;100220.97;;;29.41
13497;BMP180;6820;49.374;8.452;2022-08-19T07:21:28;100211.31;;;29.45
13497;BMP180;6820;49.374;8.452;2022-08-19T07:25:30;100216.31;;;29.57
13497;BMP180;6820;49.374;8.452;2022-08-19T07:29:35;100220.47;;;29.69
13497;BMP180;6820;49.374;8.452;2022-08-19T07:33:39;100213.34;;;29.76
13497;BMP180;6820;49.374;8.452;2022-08-19T07:37:41;100219.34;;;29.83
13497;BMP180;6820;49.374;8.452;2022-08-19T07:41:46;100220.22;;;29.82
13497;BMP180;6820;49.374;8.452;2022-08-19T07:45:47;100213.34;;;29.78
13497;BMP180;6820;49.374;8.452;2022-08-19T07:49:49;100212.31;;;29.86
13497;BMP180;6820;49.374;8.452;2022-08-19T07:53:51;100207.91;;;29.88
13497;BMP180;6820;49.374;8.452;2022-08-19T07:57:52;100211.94;;;30.04
13497;BMP180;6820;49.374;8.452;2022-08-19T08:01:56;100204.69;;;30.19
13497;BMP180;6820;49.374;8.452;2022-08-19T08:05:58;100207.03;;;30.33
13497;BMP180;6820;49.374;8.452;2022-08-19T08:10:18;100210.31;;;30.42
13497;BMP180;6820;49.374;8.452;2022-08-19T08:14:26;100192.41;;;30.62
13497;BMP180;6820;49.374;8.452;2022-08-19T08:18:30;100191.94;;;30.84
13497;BMP180;6820;49.374;8.452;2022-08-19T08:22:32;100196.03;;;30.95
13497;BMP180;6820;49.374;8.452;2022-08-19T08:26:55;100195.47;;;31.17
13497;BMP180;6820;49.374;8.452;2022-08-19T08:30:58;100192.94;;;31.14
13497;BMP180;6820;49.374;8.452;2022-08-19T08:35:00;100197.41;;;31.11
13497;BMP180;6820;49.374;8.452;2022-08-19T08:39:02;100210.66;;;31.03
13497;BMP180;6820;49.374;8.452;2022-08-19T08:43:08;100198.41;;;31.05
13497;BMP180;6820;49.374;8.452;2022-08-19T08:47:14;100210.34;;;31.15
13497;BMP180;6820;49.374;8.452;2022-08-19T08:51:21;100213.34;;;31.36
13497;BMP180;6820;49.374;8.452;2022-08-19T08:55:27;100198.78;;;31.58
13497;BMP180;6820;49.374;8.452;2022-08-19T08:59:40;100207.91;;;31.78
13497;BMP180;6820;49.374;8.452;2022-08-19T09:03:43;100205.03;;;32.17
13497;BMP180;6820;49.374;8.452;2022-08-19T09:08:10;100193.25;;;32.60
13497;BMP180;6820;49.374;8.452;2022-08-19T09:16:28;100200.22;;;32.32
13497;BMP180;6820;49.374;8.452;2022-08-19T09:20:31;100197.94;;;32.20
13497;BMP180;6820;49.374;8.452;2022-08-19T09:24:33;100197.03;;;32.21
13497;BMP180;6820;49.374;8.452;2022-08-19T09:28:35;100200.31;;;32.31
13497;BMP180;6820;49.374;8.452;2022-08-19T09:32:39;100200.59;;;32.49
13497;BMP180;6820;49.374;8.452;2022-08-19T09:36:43;100188.16;;;32.84
13497;BMP180;6820;49.374;8.452;2022-08-19T09:40:44;100199.72;;;33.06
13497;BMP180;6820;49.374;8.452;2022-08-19T09:44:46;100201.19;;;33.14
13497;BMP180;6820;49.374;8.452;2022-08-19T09:48:49;100197.88;;;33.08
13497;BMP180;6820;49.374;8.452;2022-08-19T09:52:51;100196.81;;;33.40
13497;BMP180;6820;49.374;8.452;2022-08-19T09:56:59;100190.44;;;33.73
13497;BMP180;6820;49.374;8.452;2022-08-19T10:01:06;100189.41;;;33.76
13497;BMP180;6820;49.374;8.452;2022-08-19T10:05:08;100195.69;;;33.73
13497;BMP180;6820;49.374;8.452;2022-08-19T10:09:28;100190.00;;;33.84
13497;BMP180;6820;49.374;8.452;2022-08-19T10:13:35;100190.41;;;33.97
13497;BMP180;6820;49.374;8.452;2022-08-19T10:17:37;100193.44;;;34.09
13497;BMP180;6820;49.374;8.452;2022-08-19T10:21:38;100202.25;;;34.08
13497;BMP180;6820;49.374;8.452;2022-08-19T10:25:42;100198.81;;;34.06
13497;BMP180;6820;49.374;8.452;2022-08-19T10:29:44;100197.53;;;34.17
13497;BMP180;6820;49.374;8.452;2022-08-19T10:33:48;100194.94;;;34.16
13497;BMP180;6820;49.374;8.452;2022-08-19T10:37:55;100180.47;;;34.29
13497;BMP180;6820;49.374;8.452;2022-08-19T10:42:06;100182.66;;;34.84
13497;BMP180;6820;49.374;8.452;2022-08-19T10:46:09;100166.72;;;35.08
13497;BMP180;6820;49.374;8.452;2022-08-19T10:50:16;100175.19;;;34.74
13497;BMP180;6820;49.374;8.452;2022-08-19T10:54:38;100174.06;;;34.57
13497;BMP180;6820;49.374;8.452;2022-08-19T10:59:06;100173.06;;;34.61
13497;BMP180;6820;49.374;8.452;2022-08-19T11:03:07;100166.84;;;34.62
13497;BMP180;6820;49.374;8.452;2022-08-19T11:07:10;100159.63;;;34.68
13497;BMP180;6820;49.374;8.452;2022-08-19T11:11:13;100149.69;;;34.74
13497;BMP180;6820;49.374;8.452;2022-08-19T11:15:15;100142.72;;;34.73
13497;BMP180;6820;49.374;8.452;2022-08-19T11:19:17;100125.34;;;34.47
13497;BMP180;6820;49.374;8.452;2022-08-19T11:23:20;100124.63;;;34.21
13497;BMP180;6820;49.374;8.452;2022-08-19T11:27:22;100121.69;;;34.06
13497;BMP180;6820;49.374;8.452;2022-08-19T11:31:27;100109.50;;;34.03
13497;BMP180;6820;49.374;8.452;2022-08-19T11:35:30;100118.56;;;33.96
13497;BMP180;6820;49.374;8.452;2022-08-19T11:39:33;100116.78;;;33.97
13497;BMP180;6820;49.374;8.452;2022-08-19T11:43:35;100113.63;;;34.10
13497;BMP180;6820;49.374;8.452;2022-08-19T11:47:38;100116.66;;;34.22
13497;BMP180;6820;49.374;8.452;2022-08-19T11:51:40;100108.22;;;34.36
13497;BMP180;6820;49.374;8.452;2022-08-19T11:55:46;100114.59;;;34.30
13497;BMP180;6820;49.374;8.452;2022-08-19T11:59:51;100122.06;;;34.40
13497;BMP180;6820;49.374;8.452;2022-08-19T12:03:55;100125.78;;;34.58
13497;BMP180;6820;49.374;8.452;2022-08-19T12:07:57;100130.81;;;34.64
13497;BMP180;6820;49.374;8.452;2022-08-19T12:11:58;100128.81;;;34.70
13497;BMP180;6820;49.374;8.452;2022-08-19T12:16:00;100115.16;;;34.82
13497;BMP180;6820;49.374;8.452;2022-08-19T12:20:10;100110.47;;;35.09
13497;BMP180;6820;49.374;8.452;2022-08-19T12:24:12;100114.75;;;35.12
13497;BMP180;6820;49.374;8.452;2022-08-19T12:28:14;100108.78;;;35.28
13497;BMP180;6820;49.374;8.452;2022-08-19T12:32:16;100111.75;;;35.21
13497;BMP180;6820;49.374;8.452;2022-08-19T12:36:18;100107.22;;;35.24
13497;BMP180;6820;49.374;8.452;2022-08-19T12:40:19;100117.34;;;35.53
13497;BMP180;6820;49.374;8.452;2022-08-19T12:44:22;100118.84;;;35.58
13497;BMP180;6820;49.374;8.452;2022-08-19T12:48:31;100123.31;;;35.38
13497;BMP180;6820;49.374;8.452;2022-08-19T12:52:36;100123.03;;;35.44
13497;BMP180;6820;49.374;8.452;2022-08-19T12:56:42;100109.47;;;35.72
13497;BMP180;6820;49.374;8.452;2022-08-19T13:00:43;100122.03;;;36.05
13497;BMP180;6820;49.374;8.452;2022-08-19T13:04:45;100117.94;;;36.17
13497;BMP180;6820;49.374;8.452;2022-08-19T13:08:47;100114.16;;;36.40
13497;BMP180;6820;49.374;8.452;2022-08-19T13:12:51;100114.94;;;36.79
13497;BMP180;6820;49.374;8.452;2022-08-19T13:16:52;100118.44;;;36.97
13497;BMP180;6820;49.374;8.452;2022-08-19T13:20:54;100117.66;;;37.12
13497;BMP180;6820;49.374;8.452;2022-08-19T13:24:56;100105.44;;;37.10
13497;BMP180;6820;49.374;8.452;2022-08-19T13:28:58;100101.31;;;37.21
13497;BMP180;6820;49.374;8.452;2022-08-19T13:33:18;100092.94;;;37.47
13497;BMP180;6820;49.374;8.452;2022-08-19T13:37:20;100082.38;;;37.79
13497;BMP180;6820;49.374;8.452;2022-08-19T13:41:46;100086.81;;;37.78
13497;BMP180;6820;49.374;8.452;2022-08-19T13:45:52;100085.16;;;37.44
13497;BMP180;6820;49.374;8.452;2022-08-19T13:49:56;100088.91;;;37.40
13497;BMP180;6820;49.374;8.452;2022-08-19T13:53:58;100076.13;;;37.31
13497;BMP180;6820;49.374;8.452;2022-08-19T13:58:00;100072.97;;;37.41
13497;BMP180;6820;49.374;8.452;2022-08-19T14:02:03;100071.56;;;37.66
13497;BMP180;6820;49.374;8.452;2022-08-19T14:06:06;100060.25;;;37.64
13497;BMP180;6820;49.374;8.452;2022-08-19T14:10:12;100057.25;;;37.87
13497;BMP180;6820;49.374;8.452;2022-08-19T14:14:14;100046.19;;;37.79
13497;BMP180;6820;49.374;8.452;2022-08-19T14:18:18;100058.53;;;37.95
13497;BMP180;6820;49.374;8.452;2022-08-19T14:22:19;100048.78;;;37.96
13497;BMP180;6820;49.374;8.452;2022-08-19T14:26:23;100044.13;;;38.16
13497;BMP180;6820;49.374;8.452;2022-08-19T14:30:28;100053.09;;;38.13
13497;BMP180;6820;49.374;8.452;2022-08-19T14:34:30;100036.94;;;38.03
13497;BMP180;6820;49.374;8.452;2022-08-19T14:38:33;100039.25;;;37.93
13497;BMP180;6820;49.374;8.452;2022-08-19T14:42:35;100038.56;;;38.20
13497;BMP180;6820;49.374;8.452;2022-08-19T14:46:37;100046.22;;;38.26
13497;BMP180;6820;49.374;8.452;2022-08-19T14:50:39;100043.44;;;38.28
13497;BMP180;6820;49.374;8.452;2022-08-19T14:54:40;100040.03;;;38.41
13497;BMP180;6820;49.374;8.452;2022-08-19T14:58:43;100045.75;;;38.18
13497;BMP180;6820;49.374;8.452;2022-08-19T15:02:44;100040.72;;;37.99
13497;BMP180;6820;49.374;8.452;2022-08-19T15:06:46;100037.31;;;37.80
13497;BMP180;6820;49.374;8.452;2022-08-19T15:10:48;100042.63;;;37.80
13497;BMP180;6820;49.374;8.452;2022-08-19T15:14:50;100052.31;;;37.64
13497;BMP180;6820;49.374;8.452;2022-08-19T15:18:58;100054.34;;;37.59
13497;BMP180;6820;49.374;8.452;2022-08-19T15:23:01;100053.78;;;37.53
13497;BMP180;6820;49.374;8.452;2022-08-19T15:27:02;100047.75;;;37.51
13497;BMP180;6820;49.374;8.452;2022-08-19T15:31:04;100049.94;;;37.43
13497;BMP180;6820;49.374;8.452;2022-08-19T15:35:06;100061.13;;;37.15
13497;BMP180;6820;49.374;8.452;2022-08-19T15:39:08;100062.34;;;36.91
13497;BMP180;6820;49.374;8.452;2022-08-19T15:43:10;100057.75;;;36.78
13497;BMP180;6820;49.374;8.452;2022-08-19T15:47:13;100058.38;;;36.83
13497;BMP180;6820;49.374;8.452;2022-08-19T15:51:14;100059.00;;;36.87
13497;BMP180;6820;49.374;8.452;2022-08-19T15:55:18;100050.63;;;36.96
13497;BMP180;6820;49.374;8.452;2022-08-19T15:59:35;100037.63;;;37.42
13497;BMP180;6820;49.374;8.452;2022-08-19T16:04:00;100045.56;;;37.59
13497;BMP180;6820;49.374;8.452;2022-08-19T16:08:20;100039.56;;;37.55
13497;BMP180;6820;49.374;8.452;2022-08-19T16:12:22;100044.78;;;37.57
13497;BMP180;6820;49.374;8.452;2022-08-19T16:16:30;100038.88;;;37.35
13497;BMP180;6820;49.374;8.452;2022-08-19T16:20:34;100036.00;;;37.40
13497;BMP180;6820;49.374;8.452;2022-08-19T16:24:36;100039.44;;;37.42
13497;BMP180;6820;49.374;8.452;2022-08-19T16:28:39;100040.75;;;37.33
13497;BMP180;6820;49.374;8.452;2022-08-19T16:32:42;100048.94;;;37.12
13497;BMP180;6820;49.374;8.452;2022-08-19T16:36:44;100051.66;;;36.76
13497;BMP180;6820;49.374;8.452;2022-08-19T16:40:46;100060.03;;;36.50
13497;BMP180;6820;49.374;8.452;2022-08-19T16:44:49;100060.22;;;36.27
13497;BMP180;6820;49.374;8.452;2022-08-19T16:48:50;100066.25;;;36.13
13497;BMP180;6820;49.374;8.452;2022-08-19T16:52:52;100063.50;;;35.96
13497;BMP180;6820;49.374;8.452;2022-08-19T16:56:54;100071.28;;;35.81
13497;BMP180;6820;49.374;8.452;2022-08-19T17:00:57;100064.25;;;35.80
13497;BMP180;6820;49.374;8.452;2022-08-19T17:05:07;100064.34;;;35.78
13497;BMP180;6820;49.374;8.452;2022-08-19T17:09:08;100072.78;;;35.86
13497;BMP180;6820;49.374;8.452;2022-08-19T17:13:10;100071.50;;;35.94
13497;BMP180;6820;49.374;8.452;2022-08-19T17:17:14;100069.19;;;35.87
13497;BMP180;6820;49.374;8.452;2022-08-19T17:21:26;100071.88;;;35.67
13497;BMP180;6820;49.374;8.452;2022-08-19T17:25:29;100065.69;;;35.68
13497;BMP180;6820;49.374;8.452;2022-08-19T17:29:34;100074.44;;;35.69
13497;BMP180;6820;49.374;8.452;2022-08-19T17:33:35;100077.66;;;35.56
13497;BMP180;6820;49.374;8.452;2022-08-19T17:37:41;100081.66;;;35.46
13497;BMP180;6820;49.374;8.452;2022-08-19T17:41:43;100089.41;;;35.29
13497;BMP180;6820;49.374;8.452;2022-08-19T17:45:45;100094.69;;;35.08
13497;BMP180;6820;49.374;8.452;2022-08-19T17:49:47;100089.56;;;35.05
13497;BMP180;6820;49.374;8.452;2022-08-19T17:53:51;100087.69;;;35.08
13497;BMP180;6820;49.374;8.452;2022-08-19T17:57:53;100082.41;;;35.08
13497;BMP180;6820;49.374;8.452;2022-08-19T18:01:55;100082.53;;;35.05
13497;BMP180;6820;49.374;8.452;2022-08-19T18:05:56;100093.31;;;34.99
13497;BMP180;6820;49.374;8.452;2022-08-19T18:09:58;100098.97;;;34.91
13497;BMP180;6820;49.374;8.452;2022-08-19T18:14:02;100102.66;;;34.87
13497;BMP180;6820;49.374;8.452;2022-08-19T18:18:04;100110.66;;;34.84
13497;BMP180;6820;49.374;8.452;2022-08-19T18:22:31;100111.13;;;34.73
13497;BMP180;6820;49.374;8.452;2022-08-19T18:26:37;100110.00;;;34.58
13497;BMP180;6820;49.374;8.452;2022-08-19T18:30:39;100113.03;;;34.47
13497;BMP180;6820;49.374;8.452;2022-08-19T18:34:43;100115.97;;;34.40
13497;BMP180;6820;49.374;8.452;2022-08-19T18:38:46;100120.50;;;34.37
13497;BMP180;6820;49.374;8.452;2022-08-19T18:43:09;100130.78;;;34.42
13497;BMP180;6820;49.374;8.452;2022-08-19T18:47:20;100138.38;;;34.50
13497;BMP180;6820;49.374;8.452;2022-08-19T18:51:40;100141.19;;;34.45
13497;BMP180;6820;49.374;8.452;2022-08-19T18:55:42;100146.75;;;34.38
13497;BMP180;6820;49.374;8.452;2022-08-19T18:59:45;100139.03;;;34.34
13497;BMP180;6820;49.374;8.452;2022-08-19T19:03:51;100149.69;;;34.31
13497;BMP180;6820;49.374;8.452;2022-08-19T19:07:53;100150.53;;;34.31
13497;BMP180;6820;49.374;8.452;2022-08-19T19:11:59;100166.44;;;34.28
13497;BMP180;6820;49.374;8.452;2022-08-19T19:16:00;100169.25;;;34.24
13497;BMP180;6820;49.374;8.452;2022-08-19T19:20:03;100174.75;;;34.16
13497;BMP180;6820;49.374;8.452;2022-08-19T19:24:05;100182.19;;;34.06
13497;BMP180;6820;49.374;8.452;2022-08-19T19:28:09;100191.31;;;33.96
13497;BMP180;6820;49.374;8.452;2022-08-19T19:32:19;100199.63;;;33.85
13497;BMP180;6820;49.374;8.452;2022-08-19T19:36:22;100209.81;;;33.69
13497;BMP180;6820;49.374;8.452;2022-08-19T19:40:24;100204.31;;;33.50
13497;BMP180;6820;49.374;8.452;2022-08-19T19:44:26;100212.97;;;33.28
13497;BMP180;6820;49.374;8.452;2022-08-19T19:48:31;100217.06;;;33.10
13497;BMP180;6820;49.374;8.452;2022-08-19T19:52:33;100222.84;;;32.93
13497;BMP180;6820;49.374;8.452;2022-08-19T19:56:34;100234.59;;;32.82
13497;BMP180;6820;49.374;8.452;2022-08-19T20:00:36;100233.13;;;32.72
13497;BMP180;6820;49.374;8.452;2022-08-19T20:04:37;100243.91;;;32.63
13497;BMP180;6820;49.374;8.452;2022-08-19T20:08:40;100249.50;;;32.51
13497;BMP180;6820;49.374;8.452;2022-08-19T20:13:01;100252.63;;;32.35
13497;BMP180;6820;49.374;8.452;2022-08-19T20:17:03;100256.44;;;32.25
13497;BMP180;6820;49.374;8.452;2022-08-19T20:21:05;100255.84;;;32.13
13497;BMP180;6820;49.374;8.452;2022-08-19T20:25:09;100271.78;;;32.06
13497;BMP180;6820;49.374;8.452;2022-08-19T20:29:16;100280.88;;;31.93
13497;BMP180;6820;49.374;8.452;2022-08-19T20:33:38;100279.56;;;31.77
13497;BMP180;6820;49.374;8.452;2022-08-19T20:37:39;100284.97;;;31.70
13497;BMP180;6820;49.374;8.452;2022-08-19T20:41:41;100293.19;;;31.57
13497;BMP180;6820;49.374;8.452;2022-08-19T20:45:43;100302.94;;;31.50
13497;BMP180;6820;49.374;8.452;2022-08-19T20:49:45;100301.47;;;31.40
13497;BMP180;6820;49.374;8.452;2022-08-19T20:53:46;100301.72;;;31.30
13497;BMP180;6820;49.374;8.452;2022-08-19T20:57:48;100304.47;;;31.24
13497;BMP180;6820;49.374;8.452;2022-08-19T21:01:50;100297.53;;;31.20
13497;BMP180;6820;49.374;8.452;2022-08-19T21:05:53;100305.56;;;31.13
13497;BMP180;6820;49.374;8.452;2022-08-19T21:09:56;100318.03;;;31.02
13497;BMP180;6820;49.374;8.452;2022-08-19T21:13:58;100315.63;;;30.92
13497;BMP180;6820;49.374;8.452;2022-08-19T21:17:59;100327.09;;;30.88
13497;BMP180;6820;49.374;8.452;2022-08-19T21:22:02;100321.09;;;30.83
13497;BMP180;6820;49.374;8.452;2022-08-19T21:26:04;100321.09;;;30.83
13497;BMP180;6820;49.374;8.452;2022-08-19T21:30:06;100323.69;;;30.84
13497;BMP180;6820;49.374;8.452;2022-08-19T21:34:09;100330.53;;;30.90
13497;BMP180;6820;49.374;8.452;2022-08-19T21:38:10;100332.09;;;30.98
13497;BMP180;6820;49.374;8.452;2022-08-19T21:42:12;100334.72;;;30.96
13497;BMP180;6820;49.374;8.452;2022-08-19T21:46:14;100339.31;;;30.87
13497;BMP180;6820;49.374;8.452;2022-08-19T21:50:19;100335.31;;;30.70
13497;BMP180;6820;49.374;8.452;2022-08-19T21:54:21;100343.28;;;30.63
13497;BMP180;6820;49.374;8.452;2022-08-19T21:58:22;100353.94;;;30.54
13497;BMP180;6820;49.374;8.452;2022-08-19T22:02:31;100349.66;;;30.50
13497;BMP180;6820;49.374;8.452;2022-08-19T22:06:32;100346.84;;;30.59
13497;BMP180;6820;49.374;8.452;2022-08-19T22:10:35;100348.63;;;30.57
13497;BMP180;6820;49.374;8.452;2022-08-19T22:14:37;100357.53;;;30.48
13497;BMP180;6820;49.374;8.452;2022-08-19T22:18:39;100354.13;;;30.45
13497;BMP180;6820;49.374;8.452;2022-08-19T22:22:48;100356.84;;;30.39
13497;BMP180;6820;49.374;8.452;2022-08-19T22:26:50;100361.25;;;30.37
13497;BMP180;6820;49.374;8.452;2022-08-19T22:30:52;100356.84;;;30.39
13497;BMP180;6820;49.374;8.452;2022-08-19T22:34:57;100362.09;;;30.37
13497;BMP180;6820;49.374;8.452;2022-08-19T22:38:59;100361.19;;;30.40
13497;BMP180;6820;49.374;8.452;2022-08-19T22:43:08;100368.97;;;30.43
13497;BMP180;6820;49.374;8.452;2022-08-19T22:47:10;100355.94;;;30.40
13497;BMP180;6820;49.374;8.452;2022-08-19T22:51:12;100369.94;;;30.39
13497;BMP180;6820;49.374;8.452;2022-08-19T22:55:34;100365.75;;;30.29
13497;BMP180;6820;49.374;8.452;2022-08-19T22:59:36;100370.13;;;30.27
13497;BMP180;6820;49.374;8.452;2022-08-19T23:03:38;100377.13;;;30.27
13497;BMP180;6820;49.374;8.452;2022-08-19T23:07:40;100352.78;;;30.23
13497;BMP180;6820;49.374;8.452;2022-08-19T23:11:49;100348.50;;;30.19
13497;BMP180;6820;49.374;8.452;2022-08-19T23:15:51;100347.63;;;30.19
13497;BMP180;6820;49.374;8.452;2022-08-19T23:19:53;100352.00;;;30.18
13497;BMP180;6820;49.374;8.452;2022-08-19T23:23:55;100352.03;;;30.17
13497;BMP180;6820;49.374;8.452;2022-08-19T23:27:57;100356.53;;;30.07
13497;BMP180;6820;49.374;8.452;2022-08-19T23:32:18;100350.69;;;29.92